首页
METAR-TAF:

METAR-TAF

机场 :

基尔, 德国

纬度: 54-23N, 经度: 010-10E, 海拔: 31米

当前天气观测

该预报发布于37分钟前的06:50 UTC
风速10节,风向西转西南
温度 5°C
湿度 87%
气压 1018 hPa
能见度10公里或以上
多云层高于1000英尺

METAR: EDHK 010650Z 25010KT 9999 BKN010 05/03 Q1018

时间: 09:27 (07:27 UTC)

预报

该预报发布于35分钟前的06:52 UTC
预报有效从01日的 07点(UTC)到 01日的 15点(UTC)
风速10节,风向西转西南
能见度10公里或以上
多云层高于1000英尺
成为
从 01日的 07点(UTC)到 01日的 10点(UTC)
多云层高于2500英尺
短暂存在
从 01日的 11点(UTC)到 01日的 15点(UTC)
风速15节,风向西,有时为25节阵风

TAF: EDHK 010652Z 0107/0115 25010KT 9999 BKN010 BECMG 0107/0110 BKN025 TEMPO 0111/0115 26015G25KT

超过4000个机场的气象观测和天气预报(METAR&TAF报告)。

可查询的气象台以黄色和红色小点在地图上表示。

将鼠标移到小点上方,可查看气象台名称。

然后点击查看天气观测和预报。

如需切换地图:点击带黑十字的绿色按钮放大地图;点击带横线的绿色按钮缩小地图;或者点击绿色箭头查看邻近地区的地图。


METAR-TAF: